createdAt,value
2022-08-03T00:01:51.932Z,3.00
2022-08-03T00:04:19.790Z,2.67
2022-08-03T00:06:46.771Z,2.90
2022-08-03T00:09:14.044Z,2.70
2022-08-03T00:11:41.338Z,2.75
2022-08-03T00:14:09.109Z,3.47
2022-08-03T00:16:36.261Z,2.97
2022-08-03T00:19:06.468Z,2.95
2022-08-03T00:21:33.728Z,2.70
2022-08-03T00:24:00.717Z,2.60
2022-08-03T00:26:28.191Z,2.85
2022-08-03T00:28:55.238Z,3.13
2022-08-03T00:31:40.198Z,2.90
2022-08-03T00:36:39.526Z,3.00
2022-08-03T00:39:06.825Z,2.80
2022-08-03T00:41:34.009Z,2.83
2022-08-03T00:44:01.394Z,3.25
2022-08-03T00:46:28.368Z,2.45
2022-08-03T00:48:56.324Z,3.00
2022-08-03T00:51:24.138Z,3.03
2022-08-03T00:53:51.847Z,2.88
2022-08-03T00:56:19.685Z,2.80
2022-08-03T00:58:47.544Z,2.72
2022-08-03T01:01:15.275Z,3.00
2022-08-03T01:03:43.535Z,2.53
2022-08-03T01:06:18.914Z,2.92
2022-08-03T01:09:11.677Z,3.10
2022-08-03T01:12:00.690Z,2.75
2022-08-03T01:14:57.049Z,3.10
2022-08-03T01:17:40.347Z,2.63
2022-08-03T01:20:12.288Z,3.13
2022-08-03T01:23:20.119Z,3.10
2022-08-03T01:26:14.532Z,2.70
2022-08-03T01:29:04.666Z,3.40
2022-08-03T01:32:58.411Z,2.70
2022-08-03T01:34:48.873Z,3.38
2022-08-03T01:37:23.930Z,3.05
2022-08-03T01:39:52.164Z,3.00
2022-08-03T01:42:21.682Z,2.80
2022-08-03T01:44:51.439Z,3.05
2022-08-03T01:47:21.623Z,3.00
2022-08-03T01:49:51.060Z,3.10
2022-08-03T01:52:20.612Z,2.97
2022-08-03T01:54:51.706Z,2.97
2022-08-03T01:57:20.116Z,3.50
2022-08-03T01:59:49.420Z,2.97
2022-08-03T02:02:33.633Z,2.75
2022-08-03T02:05:05.989Z,3.25
2022-08-03T02:07:41.251Z,2.88
2022-08-03T02:10:11.814Z,2.88
2022-08-03T02:12:41.251Z,2.72
2022-08-03T02:15:09.533Z,2.78
2022-08-03T02:17:40.325Z,3.20
2022-08-03T02:20:11.519Z,3.17
2022-08-03T02:22:43.533Z,2.70
2022-08-03T02:25:13.890Z,2.80
2022-08-03T02:27:49.146Z,2.97
2022-08-03T02:30:16.835Z,2.95
2022-08-03T02:32:51.554Z,2.60
2022-08-03T02:35:20.955Z,2.90
2022-08-03T02:37:52.739Z,2.80
2022-08-03T02:40:24.764Z,3.35
2022-08-03T02:42:56.386Z,2.85
2022-08-03T02:45:26.264Z,3.20
2022-08-03T02:47:58.373Z,2.90
2022-08-03T02:50:28.787Z,2.83
2022-08-03T02:52:58.474Z,2.90
2022-08-03T02:55:27.646Z,2.78
2022-08-03T02:58:01.527Z,3.88
2022-08-03T03:00:35.107Z,3.17
2022-08-03T03:03:07.101Z,2.90
2022-08-03T03:05:55.016Z,3.08
2022-08-03T03:08:28.722Z,3.00
2022-08-03T03:11:01.116Z,3.15
2022-08-03T03:13:30.783Z,3.15
2022-08-03T03:16:04.084Z,3.00
2022-08-03T03:18:37.498Z,2.97
2022-08-03T03:21:07.985Z,2.70
2022-08-03T03:23:41.079Z,2.45
2022-08-03T03:26:09.165Z,2.60
2022-08-03T03:28:37.428Z,2.70
2022-08-03T03:31:09.128Z,3.00
2022-08-03T03:33:37.683Z,2.53
2022-08-03T03:36:06.630Z,2.90
2022-08-03T03:38:34.870Z,3.08
2022-08-03T03:41:02.371Z,3.15
2022-08-03T03:43:29.870Z,2.95
2022-08-03T03:45:58.737Z,2.70
2022-08-03T03:48:26.582Z,2.75
2022-08-03T03:50:53.861Z,2.70
2022-08-03T03:53:21.800Z,2.80
2022-08-03T03:55:57.928Z,3.08
2022-08-03T03:58:31.753Z,2.88
2022-08-03T04:00:59.271Z,3.00
2022-08-03T04:03:26.629Z,2.97
2022-08-03T04:06:12.429Z,2.92
2022-08-03T04:08:58.890Z,2.97
2022-08-03T04:11:31.987Z,3.13
2022-08-03T04:14:03.839Z,2.97
2022-08-03T04:16:35.236Z,3.20
2022-08-03T04:19:09.475Z,3.00
2022-08-03T04:21:44.876Z,3.38
2022-08-03T04:24:14.074Z,3.50
2022-08-03T04:26:43.441Z,3.75
2022-08-03T04:29:15.660Z,3.25
2022-08-03T04:31:45.533Z,2.95
2022-08-03T04:34:12.689Z,3.30
2022-08-03T04:36:51.586Z,3.13
2022-08-03T04:39:25.860Z,3.25
2022-08-03T04:42:08.149Z,2.97
2022-08-03T04:44:40.683Z,3.03
2022-08-03T04:47:09.154Z,2.85
2022-08-03T04:49:40.257Z,3.80
2022-08-03T04:52:08.803Z,3.00
2022-08-03T04:54:50.183Z,3.00
2022-08-03T04:57:22.857Z,3.05
2022-08-03T05:00:01.694Z,3.05
2022-08-03T05:02:31.368Z,3.00
2022-08-03T05:04:59.006Z,3.00
2022-08-03T05:07:35.787Z,2.72
2022-08-03T05:10:15.797Z,3.45
2022-08-03T05:12:49.405Z,3.55
2022-08-03T05:15:16.705Z,2.95
2022-08-03T05:17:44.118Z,3.60
2022-08-03T05:20:12.731Z,3.30
2022-08-03T05:22:39.730Z,3.00
2022-08-03T05:25:07.355Z,3.65
2022-08-03T05:27:34.905Z,3.30
2022-08-03T05:30:30.867Z,3.15
2022-08-03T05:32:50.243Z,3.03
2022-08-03T05:36:00.955Z,3.33
2022-08-03T05:38:06.347Z,3.42
2022-08-03T05:40:36.509Z,3.58
2022-08-03T05:43:04.236Z,3.22
2022-08-03T05:45:31.732Z,3.20
2022-08-03T05:47:58.695Z,3.00
2022-08-03T05:50:26.612Z,2.95
2022-08-03T05:52:57.949Z,2.80
2022-08-03T05:55:26.098Z,2.63
2022-08-03T05:57:56.743Z,2.80
2022-08-03T06:00:24.377Z,2.78
2022-08-03T06:02:52.705Z,2.88
2022-08-03T06:05:20.727Z,3.05
2022-08-03T06:07:47.731Z,2.95
2022-08-03T06:10:37.578Z,3.90
2022-08-03T06:15:30.914Z,3.00
2022-08-03T06:18:01.731Z,2.75
2022-08-03T06:20:29.550Z,2.80
2022-08-03T06:23:00.852Z,3.75
2022-08-03T06:25:29.207Z,2.85
2022-08-03T06:27:56.666Z,2.85
2022-08-03T06:30:23.988Z,2.90
2022-08-03T06:32:51.982Z,3.00
2022-08-03T06:35:20.553Z,3.00
2022-08-03T06:37:50.050Z,2.92
2022-08-03T06:40:21.723Z,2.97
2022-08-03T06:42:52.190Z,2.70
2022-08-03T06:45:19.129Z,3.20
2022-08-03T06:47:46.825Z,2.92
2022-08-03T06:50:16.941Z,2.95
2022-08-03T06:52:45.524Z,3.83
2022-08-03T06:55:12.913Z,3.30
2022-08-03T06:57:40.268Z,3.08
2022-08-03T07:00:12.445Z,3.30
2022-08-03T07:02:42.234Z,3.25
2022-08-03T07:05:10.656Z,2.60
2022-08-03T07:07:38.620Z,3.13
2022-08-03T07:10:07.288Z,3.22
2022-08-03T07:12:35.981Z,2.80
2022-08-03T07:15:04.298Z,3.22
2022-08-03T07:17:34.474Z,2.83
2022-08-03T07:20:03.276Z,2.75
2022-08-03T07:22:30.538Z,2.88
2022-08-03T07:24:58.806Z,2.63
2022-08-03T07:27:27.232Z,2.80
2022-08-03T07:29:55.867Z,3.83
2022-08-03T07:32:23.924Z,2.90
2022-08-03T07:34:51.539Z,2.33
2022-08-03T07:37:19.195Z,2.83
2022-08-03T07:39:47.017Z,2.78
2022-08-03T07:42:14.352Z,2.45
2022-08-03T07:44:43.006Z,2.33
2022-08-03T07:47:10.079Z,2.35
2022-08-03T07:49:50.105Z,2.20
2022-08-03T07:52:35.484Z,2.70
2022-08-03T07:55:03.784Z,2.10
2022-08-03T07:57:30.975Z,2.25
2022-08-03T08:00:02.425Z,2.30
2022-08-03T08:02:40.123Z,2.72
2022-08-03T08:05:09.084Z,3.08
2022-08-03T08:07:36.042Z,2.38
2022-08-03T08:10:04.566Z,2.40
2022-08-03T08:12:32.230Z,2.38
2022-08-03T08:15:00.023Z,2.10
2022-08-03T08:17:27.516Z,2.30
2022-08-03T08:19:56.836Z,2.47
2022-08-03T08:22:30.068Z,2.50
2022-08-03T08:24:59.712Z,2.25
2022-08-03T08:27:28.493Z,5.93
2022-08-03T08:30:21.915Z,3.03
2022-08-03T08:32:50.411Z,2.45
2022-08-03T08:35:18.324Z,2.75
2022-08-03T08:37:50.829Z,2.13
2022-08-03T08:40:22.045Z,2.90
2022-08-03T08:42:59.035Z,2.08
2022-08-03T08:45:28.154Z,2.08
2022-08-03T08:48:01.032Z,2.05
2022-08-03T08:50:31.054Z,1.83
2022-08-03T08:53:02.452Z,2.00
2022-08-03T08:55:58.619Z,1.90
2022-08-03T08:58:23.183Z,3.47
2022-08-03T09:00:51.012Z,1.92
2022-08-03T09:03:29.759Z,1.95
2022-08-03T09:06:01.424Z,1.90
2022-08-03T09:08:33.149Z,2.08
2022-08-03T09:11:00.667Z,2.17
2022-08-03T09:13:29.462Z,3.60
2022-08-03T09:16:10.110Z,2.50
2022-08-03T09:18:37.687Z,2.42
2022-08-03T09:21:32.080Z,2.00
2022-08-03T09:24:04.406Z,2.20
2022-08-03T09:26:35.682Z,1.90
2022-08-03T09:29:14.983Z,2.10
2022-08-03T09:31:47.203Z,1.75
2022-08-03T09:34:17.715Z,2.03
2022-08-03T09:36:46.849Z,2.20
2022-08-03T09:39:41.161Z,2.00
2022-08-03T09:42:14.641Z,1.90
2022-08-03T09:44:49.360Z,2.38
2022-08-03T09:47:45.091Z,1.80
2022-08-03T09:50:13.096Z,2.35
2022-08-03T09:52:52.314Z,2.10
2022-08-03T09:56:34.126Z,2.25
2022-08-03T09:58:14.816Z,2.33
2022-08-03T10:01:06.255Z,2.20
2022-08-03T10:04:02.912Z,2.92
2022-08-03T10:06:28.844Z,1.80
2022-08-03T10:09:10.408Z,1.80
2022-08-03T10:11:42.129Z,1.65
2022-08-03T10:14:19.562Z,1.95
2022-08-03T10:16:48.376Z,2.22
2022-08-03T10:19:15.887Z,2.00
2022-08-03T10:21:51.171Z,2.03
2022-08-03T10:24:26.295Z,1.80
2022-08-03T10:27:03.255Z,1.73
2022-08-03T10:29:37.280Z,1.70
2022-08-03T10:32:14.952Z,1.42
2022-08-03T10:34:44.880Z,1.80
2022-08-03T10:37:15.538Z,1.73
2022-08-03T10:39:53.734Z,1.80
2022-08-03T10:42:27.282Z,1.77
2022-08-03T10:45:05.863Z,1.50
2022-08-03T10:47:35.793Z,1.60
2022-08-03T10:50:04.620Z,1.60
2022-08-03T10:52:39.527Z,1.60
2022-08-03T10:55:49.971Z,1.52
2022-08-03T10:58:57.105Z,1.30
2022-08-03T11:01:58.369Z,1.45
2022-08-03T11:04:27.347Z,1.33
2022-08-03T11:07:16.614Z,1.48
2022-08-03T11:09:50.204Z,1.50
2022-08-03T11:12:32.623Z,1.60
2022-08-03T11:15:04.253Z,1.20
2022-08-03T11:17:33.876Z,1.38
2022-08-03T11:20:14.679Z,1.40
2022-08-03T11:22:49.351Z,1.20
2022-08-03T11:25:53.447Z,1.40
2022-08-03T11:28:41.328Z,1.30
2022-08-03T11:34:13.550Z,1.38
2022-08-03T11:37:17.930Z,1.40
2022-08-03T11:39:48.077Z,1.50
2022-08-03T11:42:25.054Z,1.20
2022-08-03T11:44:54.642Z,1.25
2022-08-03T11:47:23.268Z,1.02
2022-08-03T11:49:52.126Z,1.40
2022-08-03T11:52:27.153Z,1.20
2022-08-03T11:54:56.701Z,1.35
2022-08-03T11:59:01.902Z,1.40
2022-08-03T12:00:40.580Z,1.27
2022-08-03T12:03:12.197Z,1.40
2022-08-03T12:05:51.054Z,1.38
2022-08-03T12:08:31.470Z,1.40
2022-08-03T12:11:01.404Z,1.60
2022-08-03T12:14:26.826Z,1.30
2022-08-03T12:16:29.759Z,1.50
2022-08-03T12:19:02.767Z,1.42
2022-08-03T12:21:30.728Z,1.30
2022-08-03T12:24:02.096Z,1.38
2022-08-03T12:26:42.521Z,1.52
2022-08-03T12:29:23.365Z,1.50
2022-08-03T12:31:51.115Z,1.90
2022-08-03T12:34:18.244Z,1.20
2022-08-03T12:36:57.358Z,1.33
2022-08-03T12:39:27.605Z,1.63
2022-08-03T12:41:55.560Z,1.60
2022-08-03T12:44:31.703Z,1.58
2022-08-03T12:47:00.221Z,1.70
2022-08-03T12:49:27.701Z,1.60
2022-08-03T12:52:00.804Z,1.45
2022-08-03T12:54:32.677Z,1.08
2022-08-03T12:57:04.718Z,1.27
2022-08-03T12:59:40.802Z,1.60
2022-08-03T13:02:20.832Z,1.20
2022-08-03T13:04:54.314Z,1.40
2022-08-03T13:07:23.721Z,1.17
2022-08-03T13:09:55.424Z,1.35
2022-08-03T13:12:25.488Z,1.08
2022-08-03T13:14:56.018Z,1.60
2022-08-03T13:17:23.499Z,1.25
2022-08-03T13:22:49.110Z,1.10
2022-08-03T13:25:16.822Z,1.20
2022-08-03T13:28:03.721Z,1.40
2022-08-03T13:30:31.981Z,1.17
2022-08-03T13:33:00.614Z,1.25
2022-08-03T13:35:28.248Z,1.10
2022-08-03T13:37:55.305Z,1.27
2022-08-03T13:40:29.934Z,1.20
2022-08-03T13:42:58.589Z,1.70
2022-08-03T13:45:27.612Z,1.60
2022-08-03T13:47:55.325Z,1.38
2022-08-03T13:50:22.559Z,1.50
2022-08-03T13:52:49.937Z,1.45
2022-08-03T13:55:16.955Z,1.33
2022-08-03T13:58:04.545Z,1.30
2022-08-03T14:00:32.042Z,1.58
2022-08-03T14:03:07.954Z,1.60
2022-08-03T14:05:44.986Z,1.40
2022-08-03T14:08:13.912Z,1.27
2022-08-03T14:10:44.090Z,1.42
2022-08-03T14:13:14.466Z,1.40
2022-08-03T14:15:50.171Z,1.40
2022-08-03T14:18:29.169Z,1.50
2022-08-03T14:21:07.405Z,1.45
2022-08-03T14:23:37.846Z,1.50
2022-08-03T14:26:09.656Z,1.55
2022-08-03T14:28:37.588Z,1.35
2022-08-03T14:31:08.509Z,1.40
2022-08-03T14:33:52.402Z,1.33
2022-08-03T14:36:19.377Z,1.42
2022-08-03T14:38:47.761Z,1.77
2022-08-03T14:41:19.998Z,1.27
2022-08-03T14:44:01.046Z,1.40
2022-08-03T14:46:29.566Z,1.20
2022-08-03T14:50:10.404Z,1.27
2022-08-03T14:51:51.582Z,1.50
2022-08-03T14:54:22.491Z,1.70
2022-08-03T14:56:49.677Z,1.15
2022-08-03T14:59:17.128Z,1.73
2022-08-03T15:02:02.651Z,1.20
2022-08-03T15:04:31.886Z,1.40
2022-08-03T15:06:58.824Z,1.17
2022-08-03T15:09:26.139Z,1.20
2022-08-03T15:11:53.578Z,1.33
2022-08-03T15:14:22.388Z,1.80
2022-08-03T15:17:00.677Z,1.42
2022-08-03T15:20:02.165Z,1.38
2022-08-03T15:22:19.069Z,1.27
2022-08-03T15:24:48.129Z,1.80
2022-08-03T15:27:15.062Z,1.38
2022-08-03T15:30:06.147Z,1.30
2022-08-03T15:32:30.293Z,1.20
2022-08-03T15:34:57.502Z,1.52
2022-08-03T15:37:25.934Z,1.50
2022-08-03T15:40:00.017Z,1.40
2022-08-03T15:42:33.165Z,1.08
2022-08-03T15:45:00.599Z,1.30
2022-08-03T15:47:27.982Z,1.40
2022-08-03T15:49:55.822Z,1.52
2022-08-03T15:52:23.604Z,1.38
2022-08-03T15:54:51.182Z,1.30
2022-08-03T15:57:18.361Z,1.40
2022-08-03T15:59:46.237Z,1.08
2022-08-03T16:02:13.208Z,1.50
2022-08-03T16:04:40.558Z,2.75
2022-08-03T16:07:08.334Z,4.18
2022-08-03T16:09:43.437Z,1.40
2022-08-03T16:12:15.540Z,1.25
2022-08-03T16:14:52.839Z,1.10
2022-08-03T16:17:22.935Z,1.92
2022-08-03T16:19:50.463Z,5.20
2022-08-03T16:22:22.892Z,1.90
2022-08-03T16:24:51.111Z,1.08
2022-08-03T16:27:37.028Z,1.23
2022-08-03T16:30:07.617Z,1.30
2022-08-03T16:32:34.973Z,1.10
2022-08-03T16:35:02.299Z,1.10
2022-08-03T16:37:38.706Z,1.10
2022-08-03T16:40:19.308Z,1.00
2022-08-03T16:42:47.790Z,1.00
2022-08-03T16:45:15.209Z,1.15
2022-08-03T16:47:42.719Z,0.82
2022-08-03T16:50:15.823Z,1.40
2022-08-03T16:52:48.421Z,1.45
2022-08-03T16:55:43.515Z,1.50
2022-08-03T16:58:05.677Z,1.10
2022-08-03T17:00:41.112Z,1.30
2022-08-03T17:03:18.823Z,1.17
2022-08-03T17:05:52.315Z,1.38
2022-08-03T17:08:26.692Z,1.20
2022-08-03T17:10:56.233Z,1.50
2022-08-03T17:13:39.532Z,1.48
2022-08-03T17:16:10.574Z,1.40
2022-08-03T17:18:58.510Z,1.40
2022-08-03T17:21:36.611Z,1.42
2022-08-03T17:24:32.156Z,1.33
2022-08-03T17:27:08.815Z,0.95
2022-08-03T17:29:45.115Z,1.10
2022-08-03T17:32:21.376Z,2.47
2022-08-03T17:34:50.012Z,1.65
2022-08-03T17:37:49.961Z,1.95
2022-08-03T17:40:10.587Z,2.30
2022-08-03T17:42:40.209Z,1.70
2022-08-03T17:45:15.905Z,2.17
2022-08-03T17:47:44.067Z,2.50
2022-08-03T17:50:24.954Z,2.17
2022-08-03T17:53:07.554Z,2.13
2022-08-03T17:55:55.893Z,2.50
2022-08-03T17:59:10.251Z,2.50
2022-08-03T18:02:22.251Z,2.85
2022-08-03T18:05:02.888Z,2.65
2022-08-03T18:07:59.348Z,2.17
2022-08-03T18:10:34.917Z,1.80
2022-08-03T18:13:19.670Z,2.15
2022-08-03T18:15:54.453Z,2.70
2022-08-03T18:18:32.655Z,2.45
2022-08-03T18:21:06.471Z,2.35
2022-08-03T18:23:40.061Z,2.50
2022-08-03T18:26:12.213Z,2.15
2022-08-03T18:28:41.602Z,2.03
2022-08-03T18:31:12.760Z,2.30
2022-08-03T18:34:19.721Z,2.70
2022-08-03T18:36:50.821Z,2.45
2022-08-03T18:39:22.191Z,2.60
2022-08-03T18:41:49.258Z,2.05
2022-08-03T18:44:53.249Z,2.10
2022-08-03T18:47:16.388Z,1.92
2022-08-03T18:49:59.339Z,2.47
2022-08-03T18:52:32.011Z,2.47
2022-08-03T18:55:20.844Z,1.92
2022-08-03T18:58:15.970Z,2.00
2022-08-03T19:00:59.287Z,1.90
2022-08-03T19:03:41.481Z,2.22
2022-08-03T19:06:20.300Z,2.13
2022-08-03T19:09:37.391Z,2.10
2022-08-03T19:12:31.027Z,2.22
2022-08-03T19:15:10.340Z,2.30
2022-08-03T19:17:50.026Z,2.55
2022-08-03T19:20:38.376Z,2.53
2022-08-03T19:23:06.873Z,2.45
2022-08-03T19:25:41.611Z,3.90
2022-08-03T19:28:09.369Z,4.63
2022-08-03T19:30:39.861Z,4.35
2022-08-03T19:33:12.539Z,4.93
2022-08-03T19:35:55.143Z,4.97
2022-08-03T19:38:29.788Z,4.10
2022-08-03T19:41:02.110Z,2.88
2022-08-03T19:43:53.391Z,2.80
2022-08-03T19:46:27.728Z,3.20
2022-08-03T19:49:15.462Z,3.10
2022-08-03T19:52:02.101Z,3.83
2022-08-03T19:54:45.457Z,2.72
2022-08-03T19:57:23.993Z,4.03
2022-08-03T19:59:54.058Z,2.90
2022-08-03T20:02:27.176Z,4.25
2022-08-03T20:04:57.622Z,3.90
2022-08-03T20:07:29.024Z,3.40
2022-08-03T20:10:01.497Z,3.72
2022-08-03T20:12:33.163Z,3.17
2022-08-03T20:15:07.659Z,3.03
2022-08-03T20:17:56.566Z,3.97
2022-08-03T20:20:26.876Z,3.35
2022-08-03T20:22:57.485Z,3.90
2022-08-03T20:25:38.280Z,3.15
2022-08-03T20:28:13.810Z,3.60
2022-08-03T20:30:47.267Z,3.95
2022-08-03T20:33:18.536Z,4.35
2022-08-03T20:35:49.300Z,3.30
2022-08-03T20:38:18.874Z,2.78
2022-08-03T20:40:47.340Z,3.08
2022-08-03T20:43:16.388Z,4.57
2022-08-03T20:46:01.176Z,3.80
2022-08-03T20:48:35.296Z,4.05
2022-08-03T20:51:05.335Z,4.35
2022-08-03T20:53:57.396Z,3.63
2022-08-03T20:56:35.741Z,2.72
2022-08-03T20:59:07.498Z,5.57
2022-08-03T21:01:44.379Z,5.28
2022-08-03T21:04:11.898Z,3.78
2022-08-03T21:06:54.119Z,3.60
2022-08-03T21:09:39.761Z,2.72
2022-08-03T21:12:15.507Z,3.65
2022-08-03T21:15:06.849Z,3.78
2022-08-03T21:17:40.940Z,2.90
2022-08-03T21:20:11.159Z,3.30
2022-08-03T21:22:39.698Z,3.22
2022-08-03T21:25:09.475Z,3.63
2022-08-03T21:27:39.051Z,4.32
2022-08-03T21:30:09.234Z,3.53
2022-08-03T21:32:40.719Z,4.45
2022-08-03T21:35:10.093Z,4.22
2022-08-03T21:37:39.125Z,2.90
2022-08-03T21:40:08.952Z,3.00
2022-08-03T21:42:35.936Z,3.60
2022-08-03T21:45:08.677Z,3.92
2022-08-03T21:47:38.444Z,3.75
2022-08-03T21:50:09.942Z,2.88
2022-08-03T21:52:44.665Z,3.42
2022-08-03T21:55:18.290Z,3.40
2022-08-03T21:57:52.563Z,3.17
2022-08-03T22:00:21.975Z,3.53
2022-08-03T22:02:57.385Z,3.00
2022-08-03T22:05:42.441Z,2.95
2022-08-03T22:08:13.745Z,3.80
2022-08-03T22:10:43.735Z,3.10
2022-08-03T22:13:13.298Z,3.22
2022-08-03T22:15:42.236Z,2.67
2022-08-03T22:18:10.506Z,2.72
2022-08-03T22:20:37.762Z,3.08
2022-08-03T22:23:07.531Z,3.58
2022-08-03T22:25:39.276Z,3.90
2022-08-03T22:28:10.632Z,3.42
2022-08-03T22:30:39.321Z,3.45
2022-08-03T22:33:11.243Z,3.42
2022-08-03T22:35:47.208Z,3.78
2022-08-03T22:38:19.173Z,3.15
2022-08-03T22:40:51.273Z,3.38
2022-08-03T22:43:26.168Z,3.08
2022-08-03T22:46:09.248Z,3.58
2022-08-03T22:48:41.301Z,3.25
2022-08-03T22:51:09.681Z,3.55
2022-08-03T22:53:38.855Z,3.63
2022-08-03T22:56:07.038Z,3.75
2022-08-03T22:58:34.506Z,3.58
2022-08-03T23:01:06.134Z,3.45
2022-08-03T23:03:58.933Z,3.20
2022-08-03T23:06:27.882Z,2.83
2022-08-03T23:08:55.772Z,3.33
2022-08-03T23:11:24.532Z,3.35
2022-08-03T23:13:54.776Z,2.67
2022-08-03T23:16:29.714Z,3.00
2022-08-03T23:18:59.935Z,2.38
2022-08-03T23:22:00.046Z,2.88
2022-08-03T23:24:31.173Z,2.70
2022-08-03T23:26:59.254Z,2.63
2022-08-03T23:29:30.493Z,3.80
2022-08-03T23:31:59.901Z,3.05
2022-08-03T23:34:47.295Z,2.92
2022-08-03T23:37:15.729Z,3.45
2022-08-03T23:39:45.563Z,4.65
2022-08-03T23:42:18.576Z,2.92
2022-08-03T23:44:46.638Z,3.25
2022-08-03T23:47:14.606Z,3.50
2022-08-03T23:49:42.306Z,5.20
2022-08-03T23:52:34.647Z,4.30
2022-08-03T23:55:02.658Z,6.10
2022-08-03T23:57:57.042Z,3.80
